sensor_id;sensor_type;location;lat;lon;timestamp;pressure;altitude;pressure_sealevel;temperature
20092;BMP180;10205;49.678;6.560;2023-02-04T00:00:14;101419.00;;;13.20
20092;BMP180;10205;49.678;6.560;2023-02-04T00:02:42;101415.00;;;13.10
20092;BMP180;10205;49.678;6.560;2023-02-04T00:05:12;101403.00;;;13.10
20092;BMP180;10205;49.678;6.560;2023-02-04T00:07:39;101415.00;;;13.10
20092;BMP180;10205;49.678;6.560;2023-02-04T00:10:07;101413.00;;;13.10
20092;BMP180;10205;49.678;6.560;2023-02-04T00:12:34;101411.00;;;13.10
20092;BMP180;10205;49.678;6.560;2023-02-04T00:15:04;101410.00;;;13.10
20092;BMP180;10205;49.678;6.560;2023-02-04T00:17:31;101405.00;;;13.10
20092;BMP180;10205;49.678;6.560;2023-02-04T00:19:59;101401.00;;;13.10
20092;BMP180;10205;49.678;6.560;2023-02-04T00:22:27;101419.00;;;13.20
20092;BMP180;10205;49.678;6.560;2023-02-04T00:24:54;101411.00;;;13.20
20092;BMP180;10205;49.678;6.560;2023-02-04T00:27:21;101406.00;;;13.20
20092;BMP180;10205;49.678;6.560;2023-02-04T00:29:49;101405.00;;;13.20
20092;BMP180;10205;49.678;6.560;2023-02-04T00:32:19;101417.00;;;13.20
20092;BMP180;10205;49.678;6.560;2023-02-04T00:34:46;101410.00;;;13.20
20092;BMP180;10205;49.678;6.560;2023-02-04T00:37:13;101401.00;;;13.20
20092;BMP180;10205;49.678;6.560;2023-02-04T00:39:45;101403.00;;;13.20
20092;BMP180;10205;49.678;6.560;2023-02-04T00:42:12;101400.00;;;13.20
20092;BMP180;10205;49.678;6.560;2023-02-04T00:44:39;101391.00;;;13.20
20092;BMP180;10205;49.678;6.560;2023-02-04T00:47:06;101393.00;;;13.20
20092;BMP180;10205;49.678;6.560;2023-02-04T00:49:33;101400.00;;;13.20
20092;BMP180;10205;49.678;6.560;2023-02-04T00:52:00;101397.00;;;13.20
20092;BMP180;10205;49.678;6.560;2023-02-04T00:54:28;101393.00;;;13.20
20092;BMP180;10205;49.678;6.560;2023-02-04T00:56:56;101388.00;;;13.20
20092;BMP180;10205;49.678;6.560;2023-02-04T00:59:24;101393.00;;;13.20
20092;BMP180;10205;49.678;6.560;2023-02-04T01:01:51;101386.00;;;13.20
20092;BMP180;10205;49.678;6.560;2023-02-04T01:04:18;101390.00;;;13.20
20092;BMP180;10205;49.678;6.560;2023-02-04T01:06:46;101392.00;;;13.20
20092;BMP180;10205;49.678;6.560;2023-02-04T01:09:13;101395.00;;;13.20
20092;BMP180;10205;49.678;6.560;2023-02-04T01:11:40;101396.00;;;13.20
20092;BMP180;10205;49.678;6.560;2023-02-04T01:14:08;101405.00;;;13.20
20092;BMP180;10205;49.678;6.560;2023-02-04T01:16:35;101402.00;;;13.20
20092;BMP180;10205;49.678;6.560;2023-02-04T01:19:02;101401.00;;;13.20
20092;BMP180;10205;49.678;6.560;2023-02-04T01:21:30;101403.00;;;13.20
20092;BMP180;10205;49.678;6.560;2023-02-04T01:23:57;101404.00;;;13.20
20092;BMP180;10205;49.678;6.560;2023-02-04T01:26:24;101407.00;;;13.20
20092;BMP180;10205;49.678;6.560;2023-02-04T01:28:51;101413.00;;;13.20
20092;BMP180;10205;49.678;6.560;2023-02-04T01:31:19;101419.00;;;13.20
20092;BMP180;10205;49.678;6.560;2023-02-04T01:33:46;101409.00;;;13.20
20092;BMP180;10205;49.678;6.560;2023-02-04T01:36:14;101416.00;;;13.30
20092;BMP180;10205;49.678;6.560;2023-02-04T01:38:46;101418.00;;;13.20
20092;BMP180;10205;49.678;6.560;2023-02-04T01:41:14;101417.00;;;13.20
20092;BMP180;10205;49.678;6.560;2023-02-04T01:43:41;101431.00;;;13.20
20092;BMP180;10205;49.678;6.560;2023-02-04T01:46:08;101427.00;;;13.20
20092;BMP180;10205;49.678;6.560;2023-02-04T01:48:37;101432.00;;;13.20
20092;BMP180;10205;49.678;6.560;2023-02-04T01:51:11;101422.00;;;13.20
20092;BMP180;10205;49.678;6.560;2023-02-04T01:53:40;101432.00;;;13.20
20092;BMP180;10205;49.678;6.560;2023-02-04T01:56:15;101434.00;;;13.20
20092;BMP180;10205;49.678;6.560;2023-02-04T01:58:47;101434.00;;;13.20
20092;BMP180;10205;49.678;6.560;2023-02-04T02:01:33;101426.00;;;13.20
20092;BMP180;10205;49.678;6.560;2023-02-04T02:04:02;101440.00;;;13.20
20092;BMP180;10205;49.678;6.560;2023-02-04T02:06:30;101432.00;;;13.20
20092;BMP180;10205;49.678;6.560;2023-02-04T02:08:58;101432.00;;;13.20
20092;BMP180;10205;49.678;6.560;2023-02-04T02:11:27;101422.00;;;13.20
20092;BMP180;10205;49.678;6.560;2023-02-04T02:13:54;101429.00;;;13.20
20092;BMP180;10205;49.678;6.560;2023-02-04T02:16:22;101422.00;;;13.10
20092;BMP180;10205;49.678;6.560;2023-02-04T02:18:49;101436.00;;;13.20
20092;BMP180;10205;49.678;6.560;2023-02-04T02:21:30;101434.00;;;13.20
20092;BMP180;10205;49.678;6.560;2023-02-04T02:24:03;101434.00;;;13.20
20092;BMP180;10205;49.678;6.560;2023-02-04T02:26:43;101443.00;;;13.20
20092;BMP180;10205;49.678;6.560;2023-02-04T02:29:10;101425.00;;;13.10
20092;BMP180;10205;49.678;6.560;2023-02-04T02:31:38;101424.00;;;13.10
20092;BMP180;10205;49.678;6.560;2023-02-04T02:34:05;101430.00;;;13.20
20092;BMP180;10205;49.678;6.560;2023-02-04T02:36:32;101428.00;;;13.10
20092;BMP180;10205;49.678;6.560;2023-02-04T02:39:00;101428.00;;;13.10
20092;BMP180;10205;49.678;6.560;2023-02-04T02:41:27;101429.00;;;13.10
20092;BMP180;10205;49.678;6.560;2023-02-04T02:43:57;101422.00;;;13.10
20092;BMP180;10205;49.678;6.560;2023-02-04T02:46:24;101431.00;;;13.10
20092;BMP180;10205;49.678;6.560;2023-02-04T02:48:51;101433.00;;;13.10
20092;BMP180;10205;49.678;6.560;2023-02-04T02:51:18;101406.00;;;13.10
20092;BMP180;10205;49.678;6.560;2023-02-04T02:53:48;101429.00;;;13.10
20092;BMP180;10205;49.678;6.560;2023-02-04T02:56:18;101427.00;;;13.10
20092;BMP180;10205;49.678;6.560;2023-02-04T02:58:49;101426.00;;;13.10
20092;BMP180;10205;49.678;6.560;2023-02-04T03:01:16;101428.00;;;13.10
20092;BMP180;10205;49.678;6.560;2023-02-04T03:03:48;101427.00;;;13.10
20092;BMP180;10205;49.678;6.560;2023-02-04T03:06:20;101429.00;;;13.10
20092;BMP180;10205;49.678;6.560;2023-02-04T03:08:51;101431.00;;;13.10
20092;BMP180;10205;49.678;6.560;2023-02-04T03:11:22;101427.00;;;13.10
20092;BMP180;10205;49.678;6.560;2023-02-04T03:13:51;101450.00;;;13.10
20092;BMP180;10205;49.678;6.560;2023-02-04T03:16:19;101449.00;;;13.10
20092;BMP180;10205;49.678;6.560;2023-02-04T03:18:47;101459.00;;;13.10
20092;BMP180;10205;49.678;6.560;2023-02-04T03:21:14;101473.00;;;13.10
20092;BMP180;10205;49.678;6.560;2023-02-04T03:23:41;101469.00;;;13.10
20092;BMP180;10205;49.678;6.560;2023-02-04T03:26:08;101477.00;;;13.00
20092;BMP180;10205;49.678;6.560;2023-02-04T03:28:41;101483.00;;;13.00
20092;BMP180;10205;49.678;6.560;2023-02-04T03:31:08;101492.00;;;13.00
20092;BMP180;10205;49.678;6.560;2023-02-04T03:33:35;101494.00;;;13.00
20092;BMP180;10205;49.678;6.560;2023-02-04T03:36:03;101492.00;;;13.00
20092;BMP180;10205;49.678;6.560;2023-02-04T03:38:30;101494.00;;;13.00
20092;BMP180;10205;49.678;6.560;2023-02-04T03:40:58;101496.00;;;13.00
20092;BMP180;10205;49.678;6.560;2023-02-04T03:43:25;101494.00;;;12.90
20092;BMP180;10205;49.678;6.560;2023-02-04T03:45:54;101497.00;;;12.90
20092;BMP180;10205;49.678;6.560;2023-02-04T03:48:21;101508.00;;;12.90
20092;BMP180;10205;49.678;6.560;2023-02-04T03:50:48;101506.00;;;12.90
20092;BMP180;10205;49.678;6.560;2023-02-04T03:53:15;101501.00;;;12.90
20092;BMP180;10205;49.678;6.560;2023-02-04T03:55:42;101514.00;;;12.90
20092;BMP180;10205;49.678;6.560;2023-02-04T03:58:09;101507.00;;;12.90
20092;BMP180;10205;49.678;6.560;2023-02-04T04:00:36;101509.00;;;12.90
20092;BMP180;10205;49.678;6.560;2023-02-04T04:03:04;101511.00;;;12.80
20092;BMP180;10205;49.678;6.560;2023-02-04T04:05:31;101515.00;;;12.80
20092;BMP180;10205;49.678;6.560;2023-02-04T04:07:59;101515.00;;;12.80
20092;BMP180;10205;49.678;6.560;2023-02-04T04:10:26;101514.00;;;12.80
20092;BMP180;10205;49.678;6.560;2023-02-04T04:12:54;101519.00;;;12.80
20092;BMP180;10205;49.678;6.560;2023-02-04T04:15:22;101514.00;;;12.80
20092;BMP180;10205;49.678;6.560;2023-02-04T04:17:49;101515.00;;;12.80
20092;BMP180;10205;49.678;6.560;2023-02-04T04:20:18;101522.00;;;12.80
20092;BMP180;10205;49.678;6.560;2023-02-04T04:22:45;101518.00;;;12.80
20092;BMP180;10205;49.678;6.560;2023-02-04T04:25:12;101521.00;;;12.80
20092;BMP180;10205;49.678;6.560;2023-02-04T04:27:39;101529.00;;;12.80
20092;BMP180;10205;49.678;6.560;2023-02-04T04:30:07;101530.00;;;12.80
20092;BMP180;10205;49.678;6.560;2023-02-04T04:32:34;101533.00;;;12.80
20092;BMP180;10205;49.678;6.560;2023-02-04T04:35:01;101535.00;;;12.80
20092;BMP180;10205;49.678;6.560;2023-02-04T04:37:30;101533.00;;;12.80
20092;BMP180;10205;49.678;6.560;2023-02-04T04:40:00;101529.00;;;12.80
20092;BMP180;10205;49.678;6.560;2023-02-04T04:42:27;101540.00;;;12.80
20092;BMP180;10205;49.678;6.560;2023-02-04T04:44:54;101542.00;;;12.80
20092;BMP180;10205;49.678;6.560;2023-02-04T04:47:21;101546.00;;;12.70
20092;BMP180;10205;49.678;6.560;2023-02-04T04:49:48;101547.00;;;12.70
20092;BMP180;10205;49.678;6.560;2023-02-04T04:52:15;101555.00;;;12.70
20092;BMP180;10205;49.678;6.560;2023-02-04T04:54:44;101555.00;;;12.70
20092;BMP180;10205;49.678;6.560;2023-02-04T04:57:11;101554.00;;;12.70
20092;BMP180;10205;49.678;6.560;2023-02-04T04:59:38;101557.00;;;12.70
20092;BMP180;10205;49.678;6.560;2023-02-04T05:02:05;101561.00;;;12.60
20092;BMP180;10205;49.678;6.560;2023-02-04T05:04:32;101566.00;;;12.60
20092;BMP180;10205;49.678;6.560;2023-02-04T05:06:59;101570.00;;;12.60
20092;BMP180;10205;49.678;6.560;2023-02-04T05:09:26;101565.00;;;12.50
20092;BMP180;10205;49.678;6.560;2023-02-04T05:11:55;101557.00;;;12.50
20092;BMP180;10205;49.678;6.560;2023-02-04T05:14:22;101568.00;;;12.50
20092;BMP180;10205;49.678;6.560;2023-02-04T05:16:50;101576.00;;;12.50
20092;BMP180;10205;49.678;6.560;2023-02-04T05:19:19;101577.00;;;12.40
20092;BMP180;10205;49.678;6.560;2023-02-04T05:21:46;101570.00;;;12.40
20092;BMP180;10205;49.678;6.560;2023-02-04T05:24:13;101578.00;;;12.40
20092;BMP180;10205;49.678;6.560;2023-02-04T05:26:40;101590.00;;;12.40
20092;BMP180;10205;49.678;6.560;2023-02-04T05:29:09;101590.00;;;12.40
20092;BMP180;10205;49.678;6.560;2023-02-04T05:31:36;101581.00;;;12.40
20092;BMP180;10205;49.678;6.560;2023-02-04T05:34:03;101584.00;;;12.40
20092;BMP180;10205;49.678;6.560;2023-02-04T05:36:30;101587.00;;;12.40
20092;BMP180;10205;49.678;6.560;2023-02-04T05:38:57;101587.00;;;12.30
20092;BMP180;10205;49.678;6.560;2023-02-04T05:41:24;101585.00;;;12.30
20092;BMP180;10205;49.678;6.560;2023-02-04T05:43:52;101585.00;;;12.30
20092;BMP180;10205;49.678;6.560;2023-02-04T05:46:20;101595.00;;;12.30
20092;BMP180;10205;49.678;6.560;2023-02-04T05:48:47;101615.00;;;12.30
20092;BMP180;10205;49.678;6.560;2023-02-04T05:51:14;101594.00;;;12.30
20092;BMP180;10205;49.678;6.560;2023-02-04T05:53:41;101613.00;;;12.30
20092;BMP180;10205;49.678;6.560;2023-02-04T05:56:08;101604.00;;;12.30
20092;BMP180;10205;49.678;6.560;2023-02-04T05:58:35;101606.00;;;12.30
20092;BMP180;10205;49.678;6.560;2023-02-04T06:01:03;101607.00;;;12.30
20092;BMP180;10205;49.678;6.560;2023-02-04T06:03:32;101605.00;;;12.30
20092;BMP180;10205;49.678;6.560;2023-02-04T06:05:59;101626.00;;;12.30
20092;BMP180;10205;49.678;6.560;2023-02-04T06:08:26;101618.00;;;12.30
20092;BMP180;10205;49.678;6.560;2023-02-04T06:10:53;101619.00;;;12.30
20092;BMP180;10205;49.678;6.560;2023-02-04T06:13:20;101616.00;;;12.30
20092;BMP180;10205;49.678;6.560;2023-02-04T06:15:47;101617.00;;;12.30
20092;BMP180;10205;49.678;6.560;2023-02-04T06:18:14;101634.00;;;12.30
20092;BMP180;10205;49.678;6.560;2023-02-04T06:20:42;101614.00;;;12.30
20092;BMP180;10205;49.678;6.560;2023-02-04T06:23:09;101627.00;;;12.30
20092;BMP180;10205;49.678;6.560;2023-02-04T06:25:37;101626.00;;;12.30
20092;BMP180;10205;49.678;6.560;2023-02-04T06:28:04;101623.00;;;12.30
20092;BMP180;10205;49.678;6.560;2023-02-04T06:30:31;101629.00;;;12.30
20092;BMP180;10205;49.678;6.560;2023-02-04T06:32:58;101644.00;;;12.30
20092;BMP180;10205;49.678;6.560;2023-02-04T06:35:25;101642.00;;;12.30
20092;BMP180;10205;49.678;6.560;2023-02-04T06:37:54;101638.00;;;12.30
20092;BMP180;10205;49.678;6.560;2023-02-04T06:40:21;101634.00;;;12.30
20092;BMP180;10205;49.678;6.560;2023-02-04T06:42:48;101644.00;;;12.30
20092;BMP180;10205;49.678;6.560;2023-02-04T06:45:15;101644.00;;;12.40
20092;BMP180;10205;49.678;6.560;2023-02-04T06:47:42;101646.00;;;12.30
20092;BMP180;10205;49.678;6.560;2023-02-04T06:50:09;101639.00;;;12.30
20092;BMP180;10205;49.678;6.560;2023-02-04T06:52:37;101663.00;;;12.30
20092;BMP180;10205;49.678;6.560;2023-02-04T06:55:05;101647.00;;;12.30
20092;BMP180;10205;49.678;6.560;2023-02-04T06:57:32;101650.00;;;12.30
20092;BMP180;10205;49.678;6.560;2023-02-04T06:59:59;101657.00;;;12.30
20092;BMP180;10205;49.678;6.560;2023-02-04T07:02:27;101668.00;;;12.30
20092;BMP180;10205;49.678;6.560;2023-02-04T07:04:54;101664.00;;;12.30
20092;BMP180;10205;49.678;6.560;2023-02-04T07:07:21;101674.00;;;12.30
20092;BMP180;10205;49.678;6.560;2023-02-04T07:09:48;101684.00;;;12.30
20092;BMP180;10205;49.678;6.560;2023-02-04T07:12:16;101675.00;;;12.30
20092;BMP180;10205;49.678;6.560;2023-02-04T07:14:43;101685.00;;;12.30
20092;BMP180;10205;49.678;6.560;2023-02-04T07:17:11;101691.00;;;12.30
20092;BMP180;10205;49.678;6.560;2023-02-04T07:19:38;101677.00;;;12.20
20092;BMP180;10205;49.678;6.560;2023-02-04T07:22:07;101700.00;;;12.30
20092;BMP180;10205;49.678;6.560;2023-02-04T07:24:34;101696.00;;;12.20
20092;BMP180;10205;49.678;6.560;2023-02-04T07:27:01;101713.00;;;12.20
20092;BMP180;10205;49.678;6.560;2023-02-04T07:29:30;101705.00;;;12.20
20092;BMP180;10205;49.678;6.560;2023-02-04T07:31:57;101708.00;;;12.20
20092;BMP180;10205;49.678;6.560;2023-02-04T07:34:26;101709.00;;;12.20
20092;BMP180;10205;49.678;6.560;2023-02-04T07:36:53;101718.00;;;12.20
20092;BMP180;10205;49.678;6.560;2023-02-04T07:39:20;101730.00;;;12.20
20092;BMP180;10205;49.678;6.560;2023-02-04T07:41:47;101730.00;;;12.10
20092;BMP180;10205;49.678;6.560;2023-02-04T07:44:14;101728.00;;;12.10
20092;BMP180;10205;49.678;6.560;2023-02-04T07:46:43;101726.00;;;12.10
20092;BMP180;10205;49.678;6.560;2023-02-04T07:49:10;101729.00;;;12.10
20092;BMP180;10205;49.678;6.560;2023-02-04T07:51:37;101731.00;;;12.10
20092;BMP180;10205;49.678;6.560;2023-02-04T07:54:04;101729.00;;;12.10
20092;BMP180;10205;49.678;6.560;2023-02-04T07:56:35;101735.00;;;12.10
20092;BMP180;10205;49.678;6.560;2023-02-04T07:59:02;101738.00;;;12.00
20092;BMP180;10205;49.678;6.560;2023-02-04T08:01:30;101744.00;;;12.00
20092;BMP180;10205;49.678;6.560;2023-02-04T08:03:59;101736.00;;;12.00
20092;BMP180;10205;49.678;6.560;2023-02-04T08:06:26;101741.00;;;12.00
20092;BMP180;10205;49.678;6.560;2023-02-04T08:08:56;101744.00;;;12.00
20092;BMP180;10205;49.678;6.560;2023-02-04T08:11:23;101735.00;;;12.00
20092;BMP180;10205;49.678;6.560;2023-02-04T08:13:51;101739.00;;;11.90
20092;BMP180;10205;49.678;6.560;2023-02-04T08:16:18;101747.00;;;11.90
20092;BMP180;10205;49.678;6.560;2023-02-04T08:18:45;101752.00;;;11.90
20092;BMP180;10205;49.678;6.560;2023-02-04T08:21:14;101752.00;;;11.90
20092;BMP180;10205;49.678;6.560;2023-02-04T08:23:41;101754.00;;;11.90
20092;BMP180;10205;49.678;6.560;2023-02-04T08:26:08;101764.00;;;11.90
20092;BMP180;10205;49.678;6.560;2023-02-04T08:28:37;101761.00;;;11.80
20092;BMP180;10205;49.678;6.560;2023-02-04T08:31:04;101771.00;;;11.80
20092;BMP180;10205;49.678;6.560;2023-02-04T08:33:31;101771.00;;;11.80
20092;BMP180;10205;49.678;6.560;2023-02-04T08:35:58;101779.00;;;11.80
20092;BMP180;10205;49.678;6.560;2023-02-04T08:38:27;101777.00;;;11.80
20092;BMP180;10205;49.678;6.560;2023-02-04T08:40:54;101781.00;;;11.80
20092;BMP180;10205;49.678;6.560;2023-02-04T08:43:21;101786.00;;;11.80
20092;BMP180;10205;49.678;6.560;2023-02-04T08:45:48;101773.00;;;11.80
20092;BMP180;10205;49.678;6.560;2023-02-04T08:48:15;101794.00;;;11.80
20092;BMP180;10205;49.678;6.560;2023-02-04T08:50:43;101779.00;;;11.80
20092;BMP180;10205;49.678;6.560;2023-02-04T08:53:10;101788.00;;;11.80
20092;BMP180;10205;49.678;6.560;2023-02-04T08:55:38;101784.00;;;11.80
20092;BMP180;10205;49.678;6.560;2023-02-04T08:58:06;101789.00;;;11.70
20092;BMP180;10205;49.678;6.560;2023-02-04T09:00:33;101785.00;;;11.70
20092;BMP180;10205;49.678;6.560;2023-02-04T09:03:00;101797.00;;;11.70
20092;BMP180;10205;49.678;6.560;2023-02-04T09:05:27;101792.00;;;11.70
20092;BMP180;10205;49.678;6.560;2023-02-04T09:07:55;101793.00;;;11.70
20092;BMP180;10205;49.678;6.560;2023-02-04T09:10:22;101795.00;;;11.70
20092;BMP180;10205;49.678;6.560;2023-02-04T09:12:50;101802.00;;;11.60
20092;BMP180;10205;49.678;6.560;2023-02-04T09:15:21;101804.00;;;11.60
20092;BMP180;10205;49.678;6.560;2023-02-04T09:17:49;101795.00;;;11.70
20092;BMP180;10205;49.678;6.560;2023-02-04T09:20:18;101795.00;;;11.70
20092;BMP180;10205;49.678;6.560;2023-02-04T09:22:46;101797.00;;;11.70
20092;BMP180;10205;49.678;6.560;2023-02-04T09:25:15;101815.00;;;11.70
20092;BMP180;10205;49.678;6.560;2023-02-04T09:27:42;101810.00;;;11.70
20092;BMP180;10205;49.678;6.560;2023-02-04T09:30:12;101818.00;;;11.70
20092;BMP180;10205;49.678;6.560;2023-02-04T09:32:39;101819.00;;;11.80
20092;BMP180;10205;49.678;6.560;2023-02-04T09:35:07;101811.00;;;11.80
20092;BMP180;10205;49.678;6.560;2023-02-04T09:37:34;101821.00;;;11.80
20092;BMP180;10205;49.678;6.560;2023-02-04T09:40:01;101817.00;;;11.80
20092;BMP180;10205;49.678;6.560;2023-02-04T09:42:28;101817.00;;;11.90
20092;BMP180;10205;49.678;6.560;2023-02-04T09:44:56;101821.00;;;11.90
20092;BMP180;10205;49.678;6.560;2023-02-04T09:47:26;101823.00;;;11.90
20092;BMP180;10205;49.678;6.560;2023-02-04T09:49:54;101817.00;;;12.00
20092;BMP180;10205;49.678;6.560;2023-02-04T09:52:21;101827.00;;;12.00
20092;BMP180;10205;49.678;6.560;2023-02-04T09:54:49;101823.00;;;12.10
20092;BMP180;10205;49.678;6.560;2023-02-04T09:57:19;101823.00;;;12.10
20092;BMP180;10205;49.678;6.560;2023-02-04T09:59:48;101824.00;;;12.10
20092;BMP180;10205;49.678;6.560;2023-02-04T10:02:22;101838.00;;;12.20
20092;BMP180;10205;49.678;6.560;2023-02-04T10:04:56;101830.00;;;12.20
20092;BMP180;10205;49.678;6.560;2023-02-04T10:07:24;101845.00;;;12.30
20092;BMP180;10205;49.678;6.560;2023-02-04T10:09:53;101848.00;;;12.30
20092;BMP180;10205;49.678;6.560;2023-02-04T10:12:21;101848.00;;;12.40
20092;BMP180;10205;49.678;6.560;2023-02-04T10:14:48;101845.00;;;12.40
20092;BMP180;10205;49.678;6.560;2023-02-04T10:17:21;101850.00;;;12.50
20092;BMP180;10205;49.678;6.560;2023-02-04T10:19:48;101855.00;;;12.50
20092;BMP180;10205;49.678;6.560;2023-02-04T10:22:20;101848.00;;;12.60
20092;BMP180;10205;49.678;6.560;2023-02-04T10:24:48;101856.00;;;12.60
20092;BMP180;10205;49.678;6.560;2023-02-04T10:27:15;101848.00;;;12.60
20092;BMP180;10205;49.678;6.560;2023-02-04T10:29:43;101845.00;;;12.70
20092;BMP180;10205;49.678;6.560;2023-02-04T10:32:30;101837.00;;;12.80
20092;BMP180;10205;49.678;6.560;2023-02-04T10:35:01;101854.00;;;12.80
20092;BMP180;10205;49.678;6.560;2023-02-04T10:37:30;101848.00;;;12.80
20092;BMP180;10205;49.678;6.560;2023-02-04T10:39:57;101849.00;;;12.90
20092;BMP180;10205;49.678;6.560;2023-02-04T10:42:27;101853.00;;;12.90
20092;BMP180;10205;49.678;6.560;2023-02-04T10:44:55;101857.00;;;13.00
20092;BMP180;10205;49.678;6.560;2023-02-04T10:47:24;101851.00;;;13.00
20092;BMP180;10205;49.678;6.560;2023-02-04T10:49:54;101851.00;;;13.10
20092;BMP180;10205;49.678;6.560;2023-02-04T10:52:32;101852.00;;;13.10
20092;BMP180;10205;49.678;6.560;2023-02-04T10:55:02;101858.00;;;13.10
20092;BMP180;10205;49.678;6.560;2023-02-04T10:57:29;101851.00;;;13.10
20092;BMP180;10205;49.678;6.560;2023-02-04T11:00:00;101851.00;;;13.20
20092;BMP180;10205;49.678;6.560;2023-02-04T11:02:40;101850.00;;;13.20
20092;BMP180;10205;49.678;6.560;2023-02-04T11:05:13;101850.00;;;13.20
20092;BMP180;10205;49.678;6.560;2023-02-04T11:07:43;101850.00;;;13.20
20092;BMP180;10205;49.678;6.560;2023-02-04T11:10:14;101858.00;;;13.20
20092;BMP180;10205;49.678;6.560;2023-02-04T11:12:57;101846.00;;;13.20
20092;BMP180;10205;49.678;6.560;2023-02-04T11:15:44;101845.00;;;13.20
20092;BMP180;10205;49.678;6.560;2023-02-04T11:18:26;101852.00;;;13.20
20092;BMP180;10205;49.678;6.560;2023-02-04T11:20:58;101845.00;;;13.30
20092;BMP180;10205;49.678;6.560;2023-02-04T11:23:35;101847.00;;;13.30
20092;BMP180;10205;49.678;6.560;2023-02-04T11:26:10;101850.00;;;13.30
20092;BMP180;10205;49.678;6.560;2023-02-04T11:29:08;101845.00;;;13.40
20092;BMP180;10205;49.678;6.560;2023-02-04T11:31:56;101832.00;;;13.40
20092;BMP180;10205;49.678;6.560;2023-02-04T11:34:31;101842.00;;;13.40
20092;BMP180;10205;49.678;6.560;2023-02-04T11:37:27;101841.00;;;13.40
20092;BMP180;10205;49.678;6.560;2023-02-04T11:39:59;101844.00;;;13.30
20092;BMP180;10205;49.678;6.560;2023-02-04T11:42:38;101844.00;;;13.40
20092;BMP180;10205;49.678;6.560;2023-02-04T11:45:14;101836.00;;;13.40
20092;BMP180;10205;49.678;6.560;2023-02-04T11:47:42;101855.00;;;13.40
20092;BMP180;10205;49.678;6.560;2023-02-04T11:50:16;101837.00;;;13.40
20092;BMP180;10205;49.678;6.560;2023-02-04T11:52:45;101837.00;;;13.40
20092;BMP180;10205;49.678;6.560;2023-02-04T11:55:14;101847.00;;;13.40
20092;BMP180;10205;49.678;6.560;2023-02-04T11:57:43;101848.00;;;13.40
20092;BMP180;10205;49.678;6.560;2023-02-04T12:00:16;101848.00;;;13.50
20092;BMP180;10205;49.678;6.560;2023-02-04T12:02:46;101843.00;;;13.50
20092;BMP180;10205;49.678;6.560;2023-02-04T12:05:17;101846.00;;;13.50
20092;BMP180;10205;49.678;6.560;2023-02-04T12:07:46;101842.00;;;13.50
20092;BMP180;10205;49.678;6.560;2023-02-04T12:10:24;101851.00;;;13.60
20092;BMP180;10205;49.678;6.560;2023-02-04T12:12:54;101836.00;;;13.60
20092;BMP180;10205;49.678;6.560;2023-02-04T12:15:30;101848.00;;;13.60
20092;BMP180;10205;49.678;6.560;2023-02-04T12:18:02;101831.00;;;13.60
20092;BMP180;10205;49.678;6.560;2023-02-04T12:20:30;101845.00;;;13.60
20092;BMP180;10205;49.678;6.560;2023-02-04T12:22:58;101841.00;;;13.60
20092;BMP180;10205;49.678;6.560;2023-02-04T12:25:27;101846.00;;;13.70
20092;BMP180;10205;49.678;6.560;2023-02-04T12:27:55;101845.00;;;13.70
20092;BMP180;10205;49.678;6.560;2023-02-04T12:30:25;101857.00;;;13.70
20092;BMP180;10205;49.678;6.560;2023-02-04T12:32:52;101839.00;;;13.70
20092;BMP180;10205;49.678;6.560;2023-02-04T12:35:19;101836.00;;;13.70
20092;BMP180;10205;49.678;6.560;2023-02-04T12:37:47;101840.00;;;13.80
20092;BMP180;10205;49.678;6.560;2023-02-04T12:40:16;101845.00;;;13.80
20092;BMP180;10205;49.678;6.560;2023-02-04T12:42:45;101836.00;;;13.80
20092;BMP180;10205;49.678;6.560;2023-02-04T12:45:14;101837.00;;;13.80
20092;BMP180;10205;49.678;6.560;2023-02-04T12:47:43;101833.00;;;13.90
20092;BMP180;10205;49.678;6.560;2023-02-04T12:50:13;101832.00;;;13.90
20092;BMP180;10205;49.678;6.560;2023-02-04T12:52:50;101833.00;;;13.90
20092;BMP180;10205;49.678;6.560;2023-02-04T12:55:18;101832.00;;;13.90
20092;BMP180;10205;49.678;6.560;2023-02-04T12:57:47;101830.00;;;13.90
20092;BMP180;10205;49.678;6.560;2023-02-04T13:00:17;101836.00;;;13.90
20092;BMP180;10205;49.678;6.560;2023-02-04T13:02:44;101830.00;;;13.90
20092;BMP180;10205;49.678;6.560;2023-02-04T13:05:13;101834.00;;;13.90
20092;BMP180;10205;49.678;6.560;2023-02-04T13:07:41;101833.00;;;13.90
20092;BMP180;10205;49.678;6.560;2023-02-04T13:10:10;101834.00;;;13.90
20092;BMP180;10205;49.678;6.560;2023-02-04T13:12:38;101835.00;;;13.90
20092;BMP180;10205;49.678;6.560;2023-02-04T13:15:09;101826.00;;;13.90
20092;BMP180;10205;49.678;6.560;2023-02-04T13:17:36;101827.00;;;13.90
20092;BMP180;10205;49.678;6.560;2023-02-04T13:20:05;101816.00;;;13.90
20092;BMP180;10205;49.678;6.560;2023-02-04T13:22:32;101828.00;;;13.90
20092;BMP180;10205;49.678;6.560;2023-02-04T13:24:59;101825.00;;;13.90
20092;BMP180;10205;49.678;6.560;2023-02-04T13:27:26;101824.00;;;13.90
20092;BMP180;10205;49.678;6.560;2023-02-04T13:29:54;101833.00;;;13.90
20092;BMP180;10205;49.678;6.560;2023-02-04T13:32:22;101824.00;;;13.90
20092;BMP180;10205;49.678;6.560;2023-02-04T13:34:50;101835.00;;;13.90
20092;BMP180;10205;49.678;6.560;2023-02-04T13:37:17;101832.00;;;13.90
20092;BMP180;10205;49.678;6.560;2023-02-04T13:39:44;101837.00;;;13.90
20092;BMP180;10205;49.678;6.560;2023-02-04T13:42:11;101829.00;;;13.90
20092;BMP180;10205;49.678;6.560;2023-02-04T13:44:38;101823.00;;;13.90
20092;BMP180;10205;49.678;6.560;2023-02-04T13:47:05;101839.00;;;13.90
20092;BMP180;10205;49.678;6.560;2023-02-04T13:49:34;101854.00;;;13.90
20092;BMP180;10205;49.678;6.560;2023-02-04T13:52:01;101837.00;;;13.90
20092;BMP180;10205;49.678;6.560;2023-02-04T13:54:28;101849.00;;;13.90
20092;BMP180;10205;49.678;6.560;2023-02-04T13:56:55;101840.00;;;13.90
20092;BMP180;10205;49.678;6.560;2023-02-04T13:59:22;101840.00;;;14.00
20092;BMP180;10205;49.678;6.560;2023-02-04T14:01:49;101843.00;;;13.90
20092;BMP180;10205;49.678;6.560;2023-02-04T14:04:18;101846.00;;;13.90